Time;durP1;ratioP1;P1;durP2;ratioP2;P2;SDS_P1;SDS_P2;PMS_P1;PMS_P2;Temp;Humidity;BMP_temperature;BMP_pressure;BME280_temperature;BME280_humidity;BME280_pressure;Samples;Min_cycle;Max_cycle;Signal;HPM_P1;HPM_P2
2023/01/09 00:01:00;;;;;;;54.42;29.55;;;;;;;3.66;61.12;101666.78;5050624;28;20400;-75
2023/01/09 00:03:26;;;;;;;60.10;30.80;;;;;;;3.70;60.85;101657.75;5049619;28;20395;-74
2023/01/09 00:05:51;;;;;;;58.95;30.15;;;;;;;3.74;60.80;101654.81;5050708;28;20388;-74
2023/01/09 00:08:18;;;;;;;58.33;29.33;;;;;;;3.72;60.66;101661.13;5050361;28;20466;-74
2023/01/09 00:10:43;;;;;;;59.05;30.08;;;;;;;3.69;60.47;101659.56;5050402;28;20372;-74
2023/01/09 00:13:12;;;;;;;66.53;32.73;;;;;;;3.62;60.43;101648.63;5050559;28;20391;-74
2023/01/09 00:15:39;;;;;;;57.03;30.83;;;;;;;3.71;60.40;101654.19;5050087;28;20831;-74
2023/01/09 00:18:05;;;;;;;60.50;31.13;;;;;;;3.67;60.32;101656.16;5050728;28;20402;-75
2023/01/09 00:20:30;;;;;;;62.00;32.10;;;;;;;3.70;60.63;101655.16;5049684;28;20476;-74
2023/01/09 00:22:56;;;;;;;60.03;29.77;;;;;;;3.67;60.47;101669.28;5056513;28;20384;-74
2023/01/09 00:25:23;;;;;;;53.58;29.40;;;;;;;3.58;60.51;101662.88;5058040;28;20413;-74
2023/01/09 00:27:49;;;;;;;56.13;28.52;;;;;;;3.57;60.29;101670.84;5057066;28;20461;-74
2023/01/09 00:30:14;;;;;;;62.97;31.30;;;;;;;3.52;60.74;101659.81;5056197;28;20420;-74
2023/01/09 00:32:40;;;;;;;66.17;34.67;;;;;;;3.39;60.43;101673.72;5052826;28;20394;-74
2023/01/09 00:35:07;;;;;;;66.33;32.83;;;;;;;3.32;60.98;101671.59;5052144;28;20734;-74
2023/01/09 00:37:33;;;;;;;68.30;32.40;;;;;;;3.29;60.91;101680.50;5048590;28;20723;-74
2023/01/09 00:39:58;;;;;;;103.83;48.83;;;;;;;3.17;61.07;101670.78;5048960;28;21007;-74
2023/01/09 00:42:30;;;;;;;69.18;31.70;;;;;;;3.05;61.57;101675.88;5049182;28;20411;-73
2023/01/09 00:45:00;;;;;;;63.75;31.25;;;;;;;2.87;61.86;101677.88;5048995;28;20435;-73
2023/01/09 00:47:30;;;;;;;63.67;33.22;;;;;;;2.90;62.00;101671.63;5049187;28;20399;-73
2023/01/09 00:50:02;;;;;;;70.00;32.33;;;;;;;2.97;61.84;101666.81;5048931;28;20904;-73
2023/01/09 00:52:30;;;;;;;61.30;31.08;;;;;;;2.87;61.78;101675.25;5048632;28;20384;-73
2023/01/09 00:54:57;;;;;;;64.60;29.48;;;;;;;2.79;61.84;101669.69;5048257;28;20395;-74
2023/01/09 00:57:23;;;;;;;61.28;28.73;;;;;;;2.71;62.24;101671.09;5049061;28;20400;-74
2023/01/09 00:59:48;;;;;;;54.08;27.35;;;;;;;2.58;62.53;101666.59;5049029;28;20468;-73
2023/01/09 01:02:14;;;;;;;52.42;26.50;;;;;;;2.57;62.61;101664.09;5049574;28;20463;-74
2023/01/09 01:07:39;;;;;;;57.90;27.00;;;;;;;2.44;63.04;101648.28;5048519;28;20423;-74
2023/01/09 01:10:12;;;;;;;59.70;30.55;;;;;;;2.63;62.57;101648.00;5048014;28;20442;-74
2023/01/09 01:12:39;;;;;;;58.70;28.43;;;;;;;2.34;63.45;101652.41;5049450;28;20738;-74
2023/01/09 01:15:06;;;;;;;63.17;28.63;;;;;;;2.42;63.41;101643.16;5048575;28;20408;-74
2023/01/09 01:17:36;;;;;;;56.15;28.08;;;;;;;2.51;63.19;101648.78;5047896;28;20401;-73
2023/01/09 01:20:06;;;;;;;58.17;27.63;;;;;;;2.47;63.15;101640.25;5035090;28;20380;-73
2023/01/09 01:22:31;;;;;;;61.10;30.75;;;;;;;2.40;63.51;101642.41;5049444;28;20503;-73
2023/01/09 01:24:57;;;;;;;55.08;27.13;;;;;;;2.32;63.52;101620.25;5048552;28;20833;-73
2023/01/09 01:27:23;;;;;;;59.93;29.07;;;;;;;2.49;63.07;101620.91;5048433;28;20870;-73
2023/01/09 01:29:48;;;;;;;56.90;27.87;;;;;;;2.26;63.71;101616.25;5050063;28;20384;-73
2023/01/09 01:32:14;;;;;;;60.23;28.87;;;;;;;2.47;63.77;101621.94;5049184;28;20396;-73
2023/01/09 01:34:39;;;;;;;63.77;30.07;;;;;;;2.56;63.08;101608.28;5048357;28;20454;-73
2023/01/09 01:37:05;;;;;;;61.60;29.10;;;;;;;2.71;62.92;101618.72;5048741;28;20389;-73
2023/01/09 01:39:30;;;;;;;62.42;28.83;;;;;;;2.75;62.49;101609.75;5048310;28;20492;-73
2023/01/09 01:41:56;;;;;;;60.65;28.75;;;;;;;2.85;62.54;101609.06;5048127;28;21180;-73
2023/01/09 01:44:59;;;;;;;61.20;28.57;;;;;;;2.93;62.07;101605.09;5049523;28;20475;-73
2023/01/09 01:47:30;;;;;;;58.88;28.27;;;;;;;2.77;62.30;101613.09;5048866;28;20884;-73
2023/01/09 01:49:56;;;;;;;57.63;26.33;;;;;;;2.78;62.40;101604.31;5053888;28;20954;-74
2023/01/09 01:52:23;;;;;;;62.22;26.02;;;;;;;2.80;62.43;101603.28;5053695;28;20453;-74
2023/01/09 01:54:49;;;;;;;53.42;27.58;;;;;;;2.97;62.37;101617.06;5052806;28;20428;-74
2023/01/09 01:57:15;;;;;;;58.50;26.97;;;;;;;3.02;61.81;101607.13;5052821;28;20430;-74
2023/01/09 01:59:49;;;;;;;58.53;28.33;;;;;;;2.94;61.79;101598.94;5052850;28;20392;-74
2023/01/09 02:02:21;;;;;;;55.85;27.30;;;;;;;3.05;61.92;101604.31;5052535;28;20408;-74
2023/01/09 02:04:50;;;;;;;54.95;26.73;;;;;;;3.01;61.64;101600.22;5052568;28;20400;-74
2023/01/09 02:07:15;;;;;;;64.27;32.00;;;;;;;3.05;62.00;101599.91;5052840;28;20400;-74
2023/01/09 02:09:43;;;;;;;59.00;29.63;;;;;;;3.25;61.75;101603.84;5052258;28;20400;-74
2023/01/09 02:12:26;;;;;;;58.87;28.93;;;;;;;3.30;61.34;101602.75;5052817;28;20456;-74
2023/01/09 02:15:24;;;;;;;58.63;27.85;;;;;;;3.31;61.21;101596.53;5052475;28;20419;-74
2023/01/09 02:18:08;;;;;;;64.82;29.50;;;;;;;3.21;61.23;101594.53;5024038;28;20955;-74
2023/01/09 02:20:42;;;;;;;58.60;27.52;;;;;;;3.09;61.64;101591.88;5052179;28;20860;-73
2023/01/09 02:23:31;;;;;;;67.05;28.42;;;;;;;3.09;61.74;101586.63;5048613;28;20489;-73
2023/01/09 02:26:08;;;;;;;59.22;28.45;;;;;;;2.95;62.14;101584.91;5037572;28;20430;-73
2023/01/09 02:29:34;;;;;;;63.50;28.15;;;;;;;3.18;61.97;101584.25;5052139;28;20424;-73
2023/01/09 02:32:33;;;;;;;62.37;27.80;;;;;;;3.25;61.60;101588.13;5029359;28;20400;-73
2023/01/09 02:35:10;;;;;;;61.75;29.15;;;;;;;3.43;61.40;101582.63;5052184;28;20391;-73
2023/01/09 02:37:44;;;;;;;58.13;29.45;;;;;;;3.53;60.91;101580.22;5052415;28;20832;-74
2023/01/09 02:40:28;;;;;;;60.00;28.55;;;;;;;3.58;60.91;101565.88;5051967;28;20387;-74
2023/01/09 02:42:56;;;;;;;58.60;26.83;;;;;;;3.64;60.87;101573.31;5051992;28;20781;-73
2023/01/09 02:45:21;;;;;;;62.13;27.90;;;;;;;3.66;61.03;101572.41;5052198;28;20784;-73
2023/01/09 02:47:47;;;;;;;59.53;27.35;;;;;;;3.69;61.00;101570.41;5051412;28;20397;-73
2023/01/09 02:50:26;;;;;;;58.70;28.37;;;;;;;3.53;61.10;101562.72;5051683;28;20392;-73
2023/01/09 02:53:27;;;;;;;59.58;27.90;;;;;;;3.47;61.52;101565.75;5051942;28;20472;-73
2023/01/09 02:56:06;;;;;;;58.75;27.48;;;;;;;3.49;61.45;101555.16;5051132;28;20468;-73
2023/01/09 02:58:56;;;;;;;61.25;27.38;;;;;;;3.58;61.13;101542.28;5052012;28;20376;-73
2023/01/09 03:01:39;;;;;;;54.47;27.77;;;;;;;3.65;61.09;101550.56;5051275;28;20885;-73
2023/01/09 03:04:33;;;;;;;57.70;26.37;;;;;;;3.58;61.39;101544.06;5051598;28;20815;-73
2023/01/09 03:07:12;;;;;;;56.38;27.20;;;;;;;3.51;61.59;101550.66;5050878;28;20389;-73
2023/01/09 03:09:41;;;;;;;63.10;28.08;;;;;;;3.44;61.58;101545.84;5050836;28;20564;-73
2023/01/09 03:12:13;;;;;;;58.63;27.10;;;;;;;3.61;61.39;101541.22;5051464;28;20384;-73
2023/01/09 03:14:44;;;;;;;58.43;28.20;;;;;;;3.71;60.86;101537.03;5051763;28;20395;-73
2023/01/09 03:17:16;;;;;;;61.63;28.27;;;;;;;3.62;61.46;101543.75;5051035;28;20412;-73
2023/01/09 03:19:44;;;;;;;61.53;28.23;;;;;;;3.66;61.26;101536.53;5051328;28;20388;-73
2023/01/09 03:22:10;;;;;;;65.25;28.52;;;;;;;3.66;61.29;101533.06;5051258;28;20408;-74
2023/01/09 03:24:37;;;;;;;62.25;27.20;;;;;;;3.57;61.50;101539.78;5051903;28;20881;-73
2023/01/09 03:27:06;;;;;;;60.80;27.75;;;;;;;3.38;61.51;101542.78;5053805;28;20737;-73
2023/01/09 03:29:31;;;;;;;63.03;30.63;;;;;;;3.27;62.03;101535.63;5051726;28;20558;-73
2023/01/09 03:31:57;;;;;;;61.00;28.87;;;;;;;3.28;62.15;101539.09;5050075;28;20377;-73
2023/01/09 03:34:22;;;;;;;63.20;30.17;;;;;;;3.27;62.50;101533.00;5050946;28;20455;-74
2023/01/09 03:36:48;;;;;;;63.17;30.83;;;;;;;3.30;62.47;101530.19;5050657;28;20408;-73
2023/01/09 03:39:13;;;;;;;61.00;27.47;;;;;;;3.47;62.01;101528.22;5050647;28;20392;-74
2023/01/09 03:41:39;;;;;;;56.13;26.87;;;;;;;3.57;61.35;101524.88;5051252;28;20419;-74
2023/01/09 03:44:04;;;;;;;55.13;27.43;;;;;;;3.64;61.23;101525.31;5050359;28;20396;-73
2023/01/09 03:46:29;;;;;;;60.25;27.83;;;;;;;3.66;61.16;101518.16;5047112;28;20448;-74
2023/01/09 03:48:55;;;;;;;51.03;23.73;;;;;;;3.75;61.23;101529.81;5042542;28;20389;-73
2023/01/09 03:51:20;;;;;;;49.97;25.57;;;;;;;3.76;60.76;101534.97;5051028;28;20428;-73
2023/01/09 03:53:46;;;;;;;47.37;22.67;;;;;;;3.82;60.83;101526.66;5050846;28;20388;-73
2023/01/09 03:56:11;;;;;;;50.38;25.50;;;;;;;3.76;61.09;101513.97;5051566;28;20405;-74
2023/01/09 03:58:37;;;;;;;52.63;27.07;;;;;;;3.77;61.26;101513.00;5051504;28;20409;-74
2023/01/09 04:01:04;;;;;;;53.93;26.20;;;;;;;3.87;60.64;101507.97;5050982;28;20401;-74
2023/01/09 04:03:30;;;;;;;50.63;26.25;;;;;;;3.72;61.16;101509.03;5051045;28;20396;-74
2023/01/09 04:05:56;;;;;;;50.17;25.33;;;;;;;3.57;61.34;101527.50;5051021;28;20407;-74
2023/01/09 04:08:21;;;;;;;52.87;26.87;;;;;;;3.74;61.60;101525.50;5050885;28;20442;-74
2023/01/09 04:10:49;;;;;;;50.53;27.27;;;;;;;3.70;61.18;101524.88;5050747;28;20388;-74
2023/01/09 04:13:15;;;;;;;53.15;26.95;;;;;;;3.69;61.10;101535.47;5050471;28;21188;-74
2023/01/09 04:15:41;;;;;;;59.53;28.00;;;;;;;3.70;61.37;101524.03;5050869;28;20528;-75
2023/01/09 04:18:06;;;;;;;55.77;27.37;;;;;;;3.65;61.69;101534.81;5050677;28;20450;-75
2023/01/09 04:20:32;;;;;;;59.07;28.07;;;;;;;3.78;61.40;101543.56;5050614;28;20864;-74
2023/01/09 04:22:58;;;;;;;58.88;29.23;;;;;;;3.81;61.18;101532.00;5050261;28;20411;-76
2023/01/09 04:25:25;;;;;;;57.63;27.73;;;;;;;3.70;61.82;101545.84;5049888;28;20388;-73
2023/01/09 04:27:50;;;;;;;53.05;26.27;;;;;;;3.63;61.57;101540.16;5049150;28;20392;-75
2023/01/09 04:30:16;;;;;;;51.07;24.77;;;;;;;3.50;61.93;101526.22;5048617;28;20397;-75
2023/01/09 04:32:42;;;;;;;49.23;25.03;;;;;;;3.41;62.08;101521.63;5048618;28;20392;-73
2023/01/09 04:35:08;;;;;;;51.33;26.40;;;;;;;3.46;61.96;101522.16;5049066;28;20392;-73
2023/01/09 04:37:35;;;;;;;49.90;26.00;;;;;;;3.61;61.65;101515.84;5048993;28;20385;-73
2023/01/09 04:40:07;;;;;;;47.03;25.88;;;;;;;3.75;61.24;101512.28;5048678;28;20429;-73
2023/01/09 04:42:33;;;;;;;49.92;26.27;;;;;;;3.77;60.99;101517.44;5048947;28;20465;-74
2023/01/09 04:44:59;;;;;;;51.78;27.30;;;;;;;3.74;61.41;101518.47;5048765;28;20397;-74
2023/01/09 04:47:24;;;;;;;51.03;26.65;;;;;;;3.85;61.28;101509.03;5051739;28;20454;-74
2023/01/09 04:49:50;;;;;;;52.17;26.23;;;;;;;3.94;60.65;101514.47;5051328;28;20726;-74
2023/01/09 04:52:16;;;;;;;56.15;26.45;;;;;;;3.95;60.94;101526.63;5048694;28;20416;-74
2023/01/09 04:54:42;;;;;;;60.97;30.03;;;;;;;3.91;60.96;101521.72;5050347;28;20419;-74
2023/01/09 04:57:07;;;;;;;58.50;28.30;;;;;;;3.89;61.00;101500.84;5049630;28;20393;-75
2023/01/09 04:59:33;;;;;;;56.25;30.23;;;;;;;4.02;60.85;101500.81;5046226;28;20404;-74
2023/01/09 05:01:58;;;;;;;62.23;31.43;;;;;;;4.06;60.40;101504.06;5047381;28;20404;-74
2023/01/09 05:04:24;;;;;;;59.28;30.90;;;;;;;4.00;60.43;101494.84;5047772;28;20889;-74
2023/01/09 05:06:50;;;;;;;58.38;29.98;;;;;;;4.02;60.99;101482.47;5048199;28;20488;-75
2023/01/09 05:09:15;;;;;;;66.45;32.13;;;;;;;4.12;60.97;101490.50;5047702;28;20457;-76
2023/01/09 05:11:41;;;;;;;63.00;30.40;;;;;;;4.20;60.58;101483.75;5047138;28;20442;-74
2023/01/09 05:14:06;;;;;;;66.80;32.77;;;;;;;4.15;60.65;101478.00;5046619;28;20480;-74
2023/01/09 05:16:32;;;;;;;66.80;32.70;;;;;;;4.07;60.69;101479.50;5047131;28;20416;-74
2023/01/09 05:18:59;;;;;;;72.13;38.83;;;;;;;4.10;60.79;101477.50;5048038;28;20888;-73
2023/01/09 05:21:26;;;;;;;75.68;39.10;;;;;;;4.07;60.42;101464.59;5049795;28;20494;-73
2023/01/09 05:23:51;;;;;;;79.03;41.00;;;;;;;4.09;60.58;101465.34;5052835;28;20404;-74
2023/01/09 05:26:22;;;;;;;81.37;41.30;;;;;;;4.12;60.70;101462.47;5055446;28;20393;-74
2023/01/09 05:28:51;;;;;;;95.13;47.70;;;;;;;4.15;60.52;101470.13;5055255;28;20885;-74
2023/01/09 05:31:18;;;;;;;105.20;51.45;;;;;;;4.17;60.07;101462.97;5055526;28;20392;-74
2023/01/09 05:33:44;;;;;;;105.43;51.63;;;;;;;4.05;60.50;101476.97;5055936;28;20872;-75
2023/01/09 05:36:09;;;;;;;97.85;49.13;;;;;;;4.09;60.90;101477.59;5053123;28;20392;-75
2023/01/09 05:38:35;;;;;;;96.25;47.00;;;;;;;4.18;60.37;101482.22;5057287;28;20391;-75
2023/01/09 05:41:00;;;;;;;89.30;45.53;;;;;;;4.26;60.66;101484.28;5051663;28;20409;-75
2023/01/09 05:43:26;;;;;;;85.50;43.70;;;;;;;4.33;60.56;101483.72;5048053;28;20399;-74
2023/01/09 05:45:51;;;;;;;76.03;40.33;;;;;;;4.38;60.37;101480.78;5056006;28;20737;-75
2023/01/09 05:48:17;;;;;;;71.13;38.92;;;;;;;4.38;60.17;101486.84;5055117;28;20423;-75
2023/01/09 05:50:42;;;;;;;78.63;40.72;;;;;;;4.37;60.40;101490.41;5054297;28;20392;-76
2023/01/09 05:53:08;;;;;;;69.20;37.43;;;;;;;4.29;60.15;101498.03;5060667;28;20398;-74
2023/01/09 05:55:33;;;;;;;73.47;38.03;;;;;;;4.13;60.39;101493.03;5053886;28;20399;-74
2023/01/09 05:57:59;;;;;;;70.47;37.07;;;;;;;4.12;60.54;101483.47;5054715;28;20388;-74
2023/01/09 06:00:25;;;;;;;79.10;39.00;;;;;;;4.21;60.53;101479.34;5053658;28;20388;-75
2023/01/09 06:02:50;;;;;;;82.37;41.07;;;;;;;4.31;60.74;101474.28;5055395;28;20981;-75
2023/01/09 06:05:16;;;;;;;81.05;40.65;;;;;;;4.14;60.33;101475.47;5071392;28;20399;-75
2023/01/09 06:07:41;;;;;;;63.60;33.63;;;;;;;3.99;60.75;101457.25;5056107;28;20381;-75
2023/01/09 06:10:10;;;;;;;63.67;31.97;;;;;;;3.89;60.96;101453.63;5055935;28;20399;-74
2023/01/09 06:12:36;;;;;;;57.30;29.83;;;;;;;3.71;61.35;101460.16;5054987;28;20731;-75
2023/01/09 06:15:02;;;;;;;61.95;31.58;;;;;;;3.76;61.49;101456.28;5053940;28;20381;-75
2023/01/09 06:17:28;;;;;;;59.42;30.05;;;;;;;3.82;61.21;101462.88;5054697;28;20465;-74
2023/01/09 06:19:53;;;;;;;61.57;30.63;;;;;;;3.85;61.16;101470.50;5055570;28;20380;-74
2023/01/09 06:22:19;;;;;;;77.68;46.47;;;;;;;3.87;61.30;101468.66;5055267;28;20469;-75
2023/01/09 06:24:44;;;;;;;61.55;34.83;;;;;;;3.81;61.34;101458.56;5053784;28;20397;-74
2023/01/09 06:27:11;;;;;;;60.33;33.20;;;;;;;3.71;61.64;101466.25;5054588;28;20729;-75
2023/01/09 06:29:37;;;;;;;60.38;32.38;;;;;;;3.72;61.89;101470.53;5054335;28;20381;-74
2023/01/09 06:32:03;;;;;;;62.80;33.30;;;;;;;3.91;61.27;101488.47;5054615;28;20381;-74
2023/01/09 06:34:28;;;;;;;61.20;34.58;;;;;;;3.93;61.27;101477.88;5053381;28;20377;-75
2023/01/09 06:36:54;;;;;;;59.38;30.23;;;;;;;3.88;61.54;101485.22;5051478;28;20782;-75
2023/01/09 06:39:19;;;;;;;51.00;27.47;;;;;;;3.65;61.89;101495.50;5051316;28;20377;-74
2023/01/09 06:41:45;;;;;;;48.90;27.07;;;;;;;3.52;62.67;101492.06;5052640;28;20881;-75
2023/01/09 06:44:11;;;;;;;54.00;27.63;;;;;;;3.55;62.64;101492.69;5051232;28;20389;-75
2023/01/09 06:46:36;;;;;;;53.97;27.73;;;;;;;3.63;62.30;101507.88;5050198;28;20384;-75
2023/01/09 06:49:02;;;;;;;56.50;29.47;;;;;;;3.59;62.70;101506.41;5052160;28;20384;-75
2023/01/09 06:51:27;;;;;;;52.57;28.20;;;;;;;3.72;62.36;101496.75;5051640;28;20539;-75
2023/01/09 06:53:53;;;;;;;52.17;28.33;;;;;;;3.73;61.96;101503.69;5050713;28;20385;-74
2023/01/09 06:56:19;;;;;;;67.37;36.30;;;;;;;3.81;62.00;101508.41;5050992;28;20853;-75
2023/01/09 06:58:44;;;;;;;62.80;32.47;;;;;;;3.87;62.16;101494.88;5051496;28;20468;-75
2023/01/09 07:01:10;;;;;;;58.50;31.07;;;;;;;3.82;61.92;101492.56;5050676;28;20404;-74
2023/01/09 07:03:35;;;;;;;58.53;30.23;;;;;;;3.94;61.53;101495.25;5052144;28;20420;-75
2023/01/09 07:06:01;;;;;;;53.33;28.43;;;;;;;3.87;62.04;101501.88;5051829;28;20842;-74
2023/01/09 07:08:26;;;;;;;50.08;25.42;;;;;;;3.76;62.35;101500.00;5051695;28;20442;-75
2023/01/09 07:10:52;;;;;;;54.47;30.10;;;;;;;3.85;62.41;101499.34;5052070;28;20385;-74
2023/01/09 07:13:17;;;;;;;61.13;36.00;;;;;;;3.90;62.18;101499.06;5051686;28;20384;-75
2023/01/09 07:15:43;;;;;;;62.50;31.87;;;;;;;3.92;62.23;101491.91;5051683;28;20491;-76
2023/01/09 07:18:08;;;;;;;57.63;30.40;;;;;;;3.97;62.02;101489.81;5054166;28;20400;-75
2023/01/09 07:20:34;;;;;;;56.15;30.27;;;;;;;3.95;62.09;101497.78;5054869;28;20417;-73
2023/01/09 07:22:59;;;;;;;57.33;32.85;;;;;;;3.97;62.08;101505.53;5055037;28;20772;-74
2023/01/09 07:25:25;;;;;;;50.00;28.50;;;;;;;4.01;62.32;101507.00;5053432;28;20468;-76
2023/01/09 07:27:50;;;;;;;47.77;27.90;;;;;;;4.07;61.96;101503.09;5056645;28;20444;-75
2023/01/09 07:30:16;;;;;;;46.63;25.30;;;;;;;4.07;62.13;101496.09;5055027;28;20392;-74
2023/01/09 07:32:42;;;;;;;43.78;22.40;;;;;;;3.99;62.50;101493.16;5051775;28;20364;-74
2023/01/09 07:35:08;;;;;;;44.30;23.67;;;;;;;3.97;62.04;101484.56;5059402;28;20448;-74
2023/01/09 07:37:34;;;;;;;39.90;20.63;;;;;;;3.87;62.51;101496.63;5051880;28;20385;-74
2023/01/09 07:40:00;;;;;;;40.30;22.33;;;;;;;3.86;62.68;101487.09;5053954;28;20391;-76
2023/01/09 07:42:25;;;;;;;47.47;25.13;;;;;;;4.03;62.40;101476.25;5053510;28;20496;-74
2023/01/09 07:44:51;;;;;;;42.40;21.67;;;;;;;3.96;62.40;101475.88;5053433;28;20865;-74
2023/01/09 07:47:16;;;;;;;39.30;20.95;;;;;;;3.89;62.68;101474.63;5051332;28;20381;-74
2023/01/09 07:49:42;;;;;;;43.17;23.67;;;;;;;3.85;62.72;101483.63;5052666;28;20411;-75
2023/01/09 07:52:08;;;;;;;41.90;21.47;;;;;;;3.78;63.51;101490.25;5052383;28;20904;-75
2023/01/09 07:54:33;;;;;;;39.87;21.27;;;;;;;3.90;63.32;101489.38;5051878;28;20885;-76
2023/01/09 07:56:59;;;;;;;41.70;22.43;;;;;;;4.13;62.75;101485.16;5052165;28;20729;-74
2023/01/09 07:59:25;;;;;;;41.53;23.05;;;;;;;4.00;62.33;101495.69;5052688;28;20725;-74
2023/01/09 08:01:51;;;;;;;41.20;21.67;;;;;;;4.01;62.94;101501.75;5050663;28;20892;-74
2023/01/09 08:04:16;;;;;;;44.20;22.10;;;;;;;4.16;62.34;101491.94;5050236;28;20408;-74
2023/01/09 08:06:42;;;;;;;42.27;20.60;;;;;;;4.30;62.17;101494.44;5046750;28;20874;-75
2023/01/09 08:09:07;;;;;;;44.93;23.23;;;;;;;4.19;62.03;101491.75;5050249;28;20388;-76
2023/01/09 08:11:33;;;;;;;37.67;21.23;;;;;;;4.16;62.66;101484.94;5051434;28;20415;-74
2023/01/09 08:13:58;;;;;;;40.47;22.13;;;;;;;4.14;62.38;101470.22;5050473;28;20392;-74
2023/01/09 08:16:24;;;;;;;39.63;20.97;;;;;;;4.13;63.17;101479.91;5051007;28;20513;-76
2023/01/09 08:18:49;;;;;;;44.13;21.20;;;;;;;4.22;62.84;101484.50;5051322;28;20395;-74
2023/01/09 08:21:15;;;;;;;43.23;22.00;;;;;;;4.06;63.18;101483.91;5051020;28;20441;-74
2023/01/09 08:23:40;;;;;;;36.28;19.17;;;;;;;4.05;63.10;101497.97;5051571;28;20388;-74
2023/01/09 08:26:06;;;;;;;32.10;18.27;;;;;;;4.08;62.92;101496.91;5051546;28;20381;-74
2023/01/09 08:28:31;;;;;;;34.90;19.07;;;;;;;4.08;63.17;101494.28;5051050;28;20745;-74
2023/01/09 08:30:57;;;;;;;33.15;18.58;;;;;;;4.26;63.15;101492.16;5042679;28;20394;-77
2023/01/09 08:33:22;;;;;;;36.80;19.80;;;;;;;4.46;63.10;101491.53;5049272;28;20474;-76
2023/01/09 08:35:48;;;;;;;154.93;55.90;;;;;;;4.48;62.18;101478.31;5051541;28;20734;-77
2023/01/09 08:38:13;;;;;;;36.67;19.03;;;;;;;4.52;62.44;101482.38;5050451;28;20388;-75
2023/01/09 08:40:39;;;;;;;33.17;17.08;;;;;;;4.56;62.86;101470.72;5051370;28;20467;-73
2023/01/09 08:48:33;;;;;;;39.40;18.53;;;;;;;4.80;62.47;101460.19;5047518;28;20376;-75
2023/01/09 08:50:58;;;;;;;35.63;18.80;;;;;;;4.94;62.35;101467.06;5039511;28;20798;-74
2023/01/09 08:53:23;;;;;;;40.33;20.10;;;;;;;4.92;61.94;101451.41;5055290;28;20463;-75
2023/01/09 08:55:49;;;;;;;38.45;20.13;;;;;;;4.94;62.00;101454.75;5050135;28;20412;-75
2023/01/09 08:58:14;;;;;;;42.70;22.43;;;;;;;5.01;61.51;101441.16;5048932;28;20838;-75
2023/01/09 09:00:40;;;;;;;36.50;21.40;;;;;;;4.95;61.70;101452.94;5049664;28;20388;-75
2023/01/09 09:03:05;;;;;;;41.78;21.40;;;;;;;4.93;62.28;101458.34;5050977;28;20403;-76
2023/01/09 09:05:32;;;;;;;40.40;21.67;;;;;;;4.81;62.51;101447.88;5049269;28;20876;-74
2023/01/09 09:07:57;;;;;;;38.20;19.63;;;;;;;5.02;62.06;101448.06;5048832;28;20388;-74
2023/01/09 09:10:27;;;;;;;37.47;20.50;;;;;;;4.88;62.39;101447.34;5048700;28;20392;-74
2023/01/09 09:12:55;;;;;;;134.85;85.07;;;;;;;4.94;61.86;101446.03;5048307;28;20399;-76
2023/01/09 09:15:24;;;;;;;79.75;59.88;;;;;;;4.72;62.09;101431.88;5047740;28;20581;-75
2023/01/09 09:18:00;;;;;;;84.88;56.55;;;;;;;4.86;62.44;101416.88;5048929;28;20411;-76
2023/01/09 09:20:29;;;;;;;44.10;25.35;;;;;;;4.94;62.25;101417.13;5050583;28;20799;-74
2023/01/09 09:22:55;;;;;;;272.13;205.48;;;;;;;4.95;62.26;101413.53;5049445;28;20491;-76
2023/01/09 09:25:21;;;;;;;173.30;140.10;;;;;;;5.09;61.62;101418.59;5047733;28;20484;-75
2023/01/09 09:27:47;;;;;;;36.50;24.13;;;;;;;4.92;61.91;101406.75;5047940;28;20385;-77
2023/01/09 09:30:16;;;;;;;30.83;16.85;;;;;;;4.79;62.39;101398.13;5050185;28;20408;-77
2023/01/09 09:32:42;;;;;;;29.98;16.55;;;;;;;4.79;62.73;101400.75;5050660;28;20376;-75
2023/01/09 09:35:08;;;;;;;29.45;18.02;;;;;;;4.89;62.36;101390.38;5048895;28;20875;-74
2023/01/09 09:37:34;;;;;;;30.67;16.85;;;;;;;4.91;61.76;101378.78;5053471;28;20822;-74
2023/01/09 09:40:00;;;;;;;34.80;20.23;;;;;;;4.98;62.00;101379.16;5050840;28;20895;-75
2023/01/09 09:45:49;;;;;;;29.05;15.95;;;;;;;4.91;62.02;101362.19;5050003;28;20419;-75
2023/01/09 09:48:27;;;;;;;28.25;15.15;;;;;;;4.95;62.56;101358.38;5050520;28;20457;-76
2023/01/09 09:51:14;;;;;;;24.70;14.55;;;;;;;5.06;62.05;101355.78;5050355;28;20392;-75
2023/01/09 09:53:39;;;;;;;25.67;14.13;;;;;;;5.12;62.04;101349.19;5048993;28;20393;-73
2023/01/09 09:56:10;;;;;;;22.00;12.50;;;;;;;5.08;62.28;101347.78;5049251;28;20741;-74
2023/01/09 09:58:50;;;;;;;30.77;15.27;;;;;;;5.81;64.20;101358.69;5046518;28;20389;-74
2023/01/09 10:01:29;;;;;;;26.65;13.25;;;;;;;5.85;66.81;101349.59;5048329;28;20507;-74
2023/01/09 10:03:59;;;;;;;22.52;13.05;;;;;;;5.74;63.64;101347.81;5050352;28;20395;-74
2023/01/09 10:06:31;;;;;;;26.77;15.52;;;;;;;5.68;62.45;101358.84;5048705;28;20400;-75
2023/01/09 10:09:10;;;;;;;27.50;16.90;;;;;;;5.72;61.99;101357.63;5049730;28;20870;-76
2023/01/09 10:11:46;;;;;;;27.90;16.48;;;;;;;5.65;61.30;101365.16;5056451;28;20391;-75
2023/01/09 10:14:12;;;;;;;32.03;20.15;;;;;;;5.46;61.87;101354.47;5057029;28;20391;-74
2023/01/09 10:16:56;;;;;;;34.15;21.02;;;;;;;5.62;61.78;101365.44;5056704;28;20400;-75
2023/01/09 10:19:46;;;;;;;30.30;16.55;;;;;;;5.73;61.61;101352.25;5056192;28;20825;-76
2023/01/09 10:22:39;;;;;;;25.00;15.00;;;;;;;5.81;60.81;101350.81;5053638;28;20739;-76
2023/01/09 10:25:10;;;;;;;27.30;16.17;;;;;;;5.84;60.70;101340.88;5053438;28;20392;-75
2023/01/09 10:27:47;;;;;;;31.90;19.03;;;;;;;5.86;61.02;101333.69;5053666;28;20441;-75
2023/01/09 10:30:40;;;;;;;30.67;17.52;;;;;;;5.74;60.41;101325.00;5053371;28;20376;-75
2023/01/09 10:33:43;;;;;;;30.83;18.67;;;;;;;5.72;60.74;101326.06;5053754;28;20774;-75
2023/01/09 10:36:33;;;;;;;25.70;16.85;;;;;;;5.72;60.74;101320.81;5053598;28;20373;-74
2023/01/09 10:39:03;;;;;;;31.33;20.40;;;;;;;5.48;60.52;101315.72;5052809;28;20385;-76
2023/01/09 10:41:39;;;;;;;35.10;27.95;;;;;;;5.38;61.16;101314.78;5053295;28;20404;-76
2023/01/09 10:44:19;;;;;;;32.20;22.20;;;;;;;5.41;61.36;101307.47;5053208;28;20814;-75
2023/01/09 10:46:51;;;;;;;27.13;15.77;;;;;;;5.47;60.87;101314.03;5053473;28;20381;-75
2023/01/09 10:49:17;;;;;;;25.87;15.40;;;;;;;5.61;60.91;101320.84;5052958;28;20377;-75
2023/01/09 10:51:51;;;;;;;27.48;15.48;;;;;;;5.64;61.18;101317.97;5053527;28;20369;-75
2023/01/09 10:54:22;;;;;;;23.90;14.98;;;;;;;5.57;60.55;101312.38;5052888;28;20384;-77
2023/01/09 10:56:55;;;;;;;24.08;14.18;;;;;;;5.42;61.10;101308.31;5053315;28;20388;-75
2023/01/09 10:59:22;;;;;;;27.48;15.82;;;;;;;5.52;60.94;101304.00;5052952;28;20439;-76
2023/01/09 11:01:48;;;;;;;25.90;16.13;;;;;;;5.62;60.92;101309.34;5052958;28;20407;-75
2023/01/09 11:04:27;;;;;;;24.45;14.80;;;;;;;5.70;60.86;101310.41;5053218;28;20377;-75
2023/01/09 11:06:58;;;;;;;25.15;15.95;;;;;;;5.75;60.71;101310.06;5052637;28;20399;-76
2023/01/09 11:09:23;;;;;;;27.42;17.77;;;;;;;5.78;60.68;101293.16;5052758;28;20875;-75
2023/01/09 11:11:49;;;;;;;24.77;15.32;;;;;;;5.79;60.48;101276.44;5052818;28;20372;-75
2023/01/09 11:14:31;;;;;;;23.93;14.73;;;;;;;5.77;60.70;101273.09;5055205;28;20385;-76
2023/01/09 11:17:04;;;;;;;21.23;13.45;;;;;;;5.76;61.34;101266.97;5053244;28;20419;-74
2023/01/09 11:19:32;;;;;;;20.45;12.35;;;;;;;5.72;61.33;101245.34;5053355;28;20861;-75
2023/01/09 11:22:17;;;;;;;18.15;10.63;;;;;;;5.61;61.24;101255.91;5052349;28;20958;-74
2023/01/09 11:24:43;;;;;;;22.43;13.30;;;;;;;5.46;61.55;101233.50;5052840;28;20388;-75
2023/01/09 11:27:11;;;;;;;19.20;11.07;;;;;;;5.59;61.10;101236.81;5053265;28;20392;-77
2023/01/09 11:29:37;;;;;;;21.50;13.45;;;;;;;5.67;61.34;101236.16;5052905;28;20476;-75
2023/01/09 11:32:02;;;;;;;18.83;12.57;;;;;;;5.71;61.19;101224.47;5054114;28;20464;-74
2023/01/09 11:34:32;;;;;;;17.67;12.17;;;;;;;5.82;61.10;101218.31;5053866;28;20380;-75
2023/01/09 11:37:06;;;;;;;18.92;12.65;;;;;;;5.83;60.51;101207.63;5052406;28;20722;-77